sensor_id;sensor_type;location;lat;lon;timestamp;P1;P2;P0
45871;PMS5003;32333;55.844;-3.210;2023-05-10T00:01:47;0;0;
45871;PMS5003;32333;55.844;-3.210;2023-05-10T00:04:15;0;0;
45871;PMS5003;32333;55.844;-3.210;2023-05-10T00:06:42;0;0;
45871;PMS5003;32333;55.844;-3.210;2023-05-10T00:09:10;0;0;
45871;PMS5003;32333;55.844;-3.210;2023-05-10T00:11:38;0;0;
45871;PMS5003;32333;55.844;-3.210;2023-05-10T00:14:35;0;0;
45871;PMS5003;32333;55.844;-3.210;2023-05-10T00:17:02;0;0;
45871;PMS5003;32333;55.844;-3.210;2023-05-10T00:19:30;1;1;
45871;PMS5003;32333;55.844;-3.210;2023-05-10T00:21:59;0;0;
45871;PMS5003;32333;55.844;-3.210;2023-05-10T00:24:26;0;0;
45871;PMS5003;32333;55.844;-3.210;2023-05-10T00:26:53;0;0;
45871;PMS5003;32333;55.844;-3.210;2023-05-10T00:29:22;0;0;
45871;PMS5003;32333;55.844;-3.210;2023-05-10T00:31:49;0;0;
45871;PMS5003;32333;55.844;-3.210;2023-05-10T00:34:16;0;0;
45871;PMS5003;32333;55.844;-3.210;2023-05-10T00:36:44;0;0;
45871;PMS5003;32333;55.844;-3.210;2023-05-10T00:39:11;0;0;
45871;PMS5003;32333;55.844;-3.210;2023-05-10T00:41:39;0;0;
45871;PMS5003;32333;55.844;-3.210;2023-05-10T00:44:35;0;0;
45871;PMS5003;32333;55.844;-3.210;2023-05-10T00:47:03;0;0;
45871;PMS5003;32333;55.844;-3.210;2023-05-10T00:49:30;0;0;
45871;PMS5003;32333;55.844;-3.210;2023-05-10T00:51:58;0;0;
45871;PMS5003;32333;55.844;-3.210;2023-05-10T00:54:26;0;0;
45871;PMS5003;32333;55.844;-3.210;2023-05-10T00:56:54;4;4;
45871;PMS5003;32333;55.844;-3.210;2023-05-10T00:59:22;7;7;
45871;PMS5003;32333;55.844;-3.210;2023-05-10T01:01:50;21;21;
45871;PMS5003;32333;55.844;-3.210;2023-05-10T01:04:19;40;40;
45871;PMS5003;32333;55.844;-3.210;2023-05-10T01:06:48;66;66;
45871;PMS5003;32333;55.844;-3.210;2023-05-10T01:09:15;54;54;
45871;PMS5003;32333;55.844;-3.210;2023-05-10T01:11:42;49;49;
45871;PMS5003;32333;55.844;-3.210;2023-05-10T01:14:35;55;55;
45871;PMS5003;32333;55.844;-3.210;2023-05-10T01:17:03;48;48;
45871;PMS5003;32333;55.844;-3.210;2023-05-10T01:19:34;61;61;
45871;PMS5003;32333;55.844;-3.210;2023-05-10T01:22:05;51;51;
45871;PMS5003;32333;55.844;-3.210;2023-05-10T01:24:51;78;78;
45871;PMS5003;32333;55.844;-3.210;2023-05-10T01:27:42;63;63;
45871;PMS5003;32333;55.844;-3.210;2023-05-10T01:28:27;69;69;
45871;PMS5003;32333;55.844;-3.210;2023-05-10T01:31:08;63;63;
45871;PMS5003;32333;55.844;-3.210;2023-05-10T01:33:47;31;31;
45871;PMS5003;32333;55.844;-3.210;2023-05-10T01:36:24;51;51;
45871;PMS5003;32333;55.844;-3.210;2023-05-10T01:39:00;43;43;
45871;PMS5003;32333;55.844;-3.210;2023-05-10T01:41:36;37;37;
45871;PMS5003;32333;55.844;-3.210;2023-05-10T01:44:35;15;15;
45871;PMS5003;32333;55.844;-3.210;2023-05-10T01:47:09;30;30;
45871;PMS5003;32333;55.844;-3.210;2023-05-10T01:49:41;27;27;
45871;PMS5003;32333;55.844;-3.210;2023-05-10T01:52:12;25;25;
45871;PMS5003;32333;55.844;-3.210;2023-05-10T01:54:44;18;18;
45871;PMS5003;32333;55.844;-3.210;2023-05-10T01:57:16;31;31;
45871;PMS5003;32333;55.844;-3.210;2023-05-10T01:59:46;51;48;
45871;PMS5003;32333;55.844;-3.210;2023-05-10T02:02:18;24;24;
45871;PMS5003;32333;55.844;-3.210;2023-05-10T02:04:49;37;37;
45871;PMS5003;32333;55.844;-3.210;2023-05-10T02:07:18;55;55;
45871;PMS5003;32333;55.844;-3.210;2023-05-10T02:09:48;30;30;
45871;PMS5003;32333;55.844;-3.210;2023-05-10T02:14:35;25;25;
45871;PMS5003;32333;55.844;-3.210;2023-05-10T02:17:04;51;51;
45871;PMS5003;32333;55.844;-3.210;2023-05-10T02:19:34;40;40;
45871;PMS5003;32333;55.844;-3.210;2023-05-10T02:22:04;31;31;
45871;PMS5003;32333;55.844;-3.210;2023-05-10T02:24:32;43;43;
45871;PMS5003;32333;55.844;-3.210;2023-05-10T02:27:01;33;33;
45871;PMS5003;32333;55.844;-3.210;2023-05-10T02:29:30;24;24;
45871;PMS5003;32333;55.844;-3.210;2023-05-10T02:31:59;24;24;
45871;PMS5003;32333;55.844;-3.210;2023-05-10T02:34:28;37;37;
45871;PMS5003;32333;55.844;-3.210;2023-05-10T02:36:56;46;46;
45871;PMS5003;32333;55.844;-3.210;2023-05-10T02:39:27;30;30;
45871;PMS5003;32333;55.844;-3.210;2023-05-10T02:41:56;37;37;
45871;PMS5003;32333;55.844;-3.210;2023-05-10T02:44:34;64;64;
45871;PMS5003;32333;55.844;-3.210;2023-05-10T02:47:03;87;87;
45871;PMS5003;32333;55.844;-3.210;2023-05-10T02:49:32;126;126;
45871;PMS5003;32333;55.844;-3.210;2023-05-10T02:52:00;112;112;
45871;PMS5003;32333;55.844;-3.210;2023-05-10T02:54:33;109;109;
45871;PMS5003;32333;55.844;-3.210;2023-05-10T02:57:06;117;117;
45871;PMS5003;32333;55.844;-3.210;2023-05-10T02:59:37;121;121;
45871;PMS5003;32333;55.844;-3.210;2023-05-10T03:02:05;111;111;
45871;PMS5003;32333;55.844;-3.210;2023-05-10T03:04:34;75;75;
45871;PMS5003;32333;55.844;-3.210;2023-05-10T03:07:01;24;24;
45871;PMS5003;32333;55.844;-3.210;2023-05-10T03:09:29;25;25;
45871;PMS5003;32333;55.844;-3.210;2023-05-10T03:12:00;39;39;
45871;PMS5003;32333;55.844;-3.210;2023-05-10T03:14:39;25;25;
45871;PMS5003;32333;55.844;-3.210;2023-05-10T03:17:17;25;25;
45871;PMS5003;32333;55.844;-3.210;2023-05-10T03:19:51;28;28;
45871;PMS5003;32333;55.844;-3.210;2023-05-10T03:22:23;31;31;
45871;PMS5003;32333;55.844;-3.210;2023-05-10T03:24:53;27;27;
45871;PMS5003;32333;55.844;-3.210;2023-05-10T03:27:23;30;30;
45871;PMS5003;32333;55.844;-3.210;2023-05-10T03:29:53;25;25;
45871;PMS5003;32333;55.844;-3.210;2023-05-10T03:32:22;30;30;
45871;PMS5003;32333;55.844;-3.210;2023-05-10T03:34:49;36;36;
45871;PMS5003;32333;55.844;-3.210;2023-05-10T03:37:18;36;36;
45871;PMS5003;32333;55.844;-3.210;2023-05-10T03:39:46;54;54;
45871;PMS5003;32333;55.844;-3.210;2023-05-10T03:44:33;43;43;
45871;PMS5003;32333;55.844;-3.210;2023-05-10T03:47:01;54;54;
45871;PMS5003;32333;55.844;-3.210;2023-05-10T03:49:28;66;66;
45871;PMS5003;32333;55.844;-3.210;2023-05-10T03:51:55;111;111;
45871;PMS5003;32333;55.844;-3.210;2023-05-10T03:54:23;82;82;
45871;PMS5003;32333;55.844;-3.210;2023-05-10T03:56:51;99;99;
45871;PMS5003;32333;55.844;-3.210;2023-05-10T03:59:18;85;85;
45871;PMS5003;32333;55.844;-3.210;2023-05-10T04:01:47;34;34;
45871;PMS5003;32333;55.844;-3.210;2023-05-10T04:04:14;0;0;
45871;PMS5003;32333;55.844;-3.210;2023-05-10T04:06:41;0;0;
45871;PMS5003;32333;55.844;-3.210;2023-05-10T04:09:09;0;0;
45871;PMS5003;32333;55.844;-3.210;2023-05-10T04:11:36;0;0;
45871;PMS5003;32333;55.844;-3.210;2023-05-10T04:14:35;0;0;
45871;PMS5003;32333;55.844;-3.210;2023-05-10T04:17:03;0;0;
45871;PMS5003;32333;55.844;-3.210;2023-05-10T04:19:30;0;0;
45871;PMS5003;32333;55.844;-3.210;2023-05-10T04:21:59;0;0;
45871;PMS5003;32333;55.844;-3.210;2023-05-10T04:24:26;0;0;
45871;PMS5003;32333;55.844;-3.210;2023-05-10T04:26:54;0;0;
45871;PMS5003;32333;55.844;-3.210;2023-05-10T04:29:23;0;0;
45871;PMS5003;32333;55.844;-3.210;2023-05-10T04:31:50;0;0;
45871;PMS5003;32333;55.844;-3.210;2023-05-10T04:34:20;0;0;
45871;PMS5003;32333;55.844;-3.210;2023-05-10T04:36:48;0;0;
45871;PMS5003;32333;55.844;-3.210;2023-05-10T04:39:15;0;0;
45871;PMS5003;32333;55.844;-3.210;2023-05-10T04:41:43;0;0;
45871;PMS5003;32333;55.844;-3.210;2023-05-10T04:44:36;0;0;
45871;PMS5003;32333;55.844;-3.210;2023-05-10T04:47:03;0;0;
45871;PMS5003;32333;55.844;-3.210;2023-05-10T04:49:30;0;0;
45871;PMS5003;32333;55.844;-3.210;2023-05-10T04:51:59;0;0;
45871;PMS5003;32333;55.844;-3.210;2023-05-10T04:54:26;0;0;
45871;PMS5003;32333;55.844;-3.210;2023-05-10T04:56:53;0;0;
45871;PMS5003;32333;55.844;-3.210;2023-05-10T04:59:21;0;0;
45871;PMS5003;32333;55.844;-3.210;2023-05-10T05:01:48;0;0;
45871;PMS5003;32333;55.844;-3.210;2023-05-10T05:04:16;0;0;
45871;PMS5003;32333;55.844;-3.210;2023-05-10T05:06:43;0;0;
45871;PMS5003;32333;55.844;-3.210;2023-05-10T05:09:11;0;0;
45871;PMS5003;32333;55.844;-3.210;2023-05-10T05:11:39;0;0;
45871;PMS5003;32333;55.844;-3.210;2023-05-10T05:14:34;0;0;
45871;PMS5003;32333;55.844;-3.210;2023-05-10T05:17:02;0;0;
45871;PMS5003;32333;55.844;-3.210;2023-05-10T05:19:30;0;0;
45871;PMS5003;32333;55.844;-3.210;2023-05-10T05:21:59;0;0;
45871;PMS5003;32333;55.844;-3.210;2023-05-10T05:24:27;0;0;
45871;PMS5003;32333;55.844;-3.210;2023-05-10T05:26:54;0;0;
45871;PMS5003;32333;55.844;-3.210;2023-05-10T05:29:22;0;0;
45871;PMS5003;32333;55.844;-3.210;2023-05-10T05:31:50;49;49;
45871;PMS5003;32333;55.844;-3.210;2023-05-10T05:34:17;46;46;
45871;PMS5003;32333;55.844;-3.210;2023-05-10T05:36:45;33;33;
45871;PMS5003;32333;55.844;-3.210;2023-05-10T05:39:12;25;24;
45871;PMS5003;32333;55.844;-3.210;2023-05-10T05:41:40;18;18;
45871;PMS5003;32333;55.844;-3.210;2023-05-10T05:44:35;1;1;
45871;PMS5003;32333;55.844;-3.210;2023-05-10T05:47:03;0;0;
45871;PMS5003;32333;55.844;-3.210;2023-05-10T05:49:31;0;0;
45871;PMS5003;32333;55.844;-3.210;2023-05-10T05:51:59;1;1;
45871;PMS5003;32333;55.844;-3.210;2023-05-10T05:54:27;0;0;
45871;PMS5003;32333;55.844;-3.210;2023-05-10T05:56:55;0;0;
45871;PMS5003;32333;55.844;-3.210;2023-05-10T05:59:24;0;0;
45871;PMS5003;32333;55.844;-3.210;2023-05-10T06:01:51;0;0;
45871;PMS5003;32333;55.844;-3.210;2023-05-10T06:04:18;0;0;
45871;PMS5003;32333;55.844;-3.210;2023-05-10T06:06:47;0;0;
45871;PMS5003;32333;55.844;-3.210;2023-05-10T06:09:15;3;0;
45871;PMS5003;32333;55.844;-3.210;2023-05-10T06:11:42;0;0;
45871;PMS5003;32333;55.844;-3.210;2023-05-10T06:14:35;0;0;
45871;PMS5003;32333;55.844;-3.210;2023-05-10T06:17:02;0;0;
45871;PMS5003;32333;55.844;-3.210;2023-05-10T06:19:29;0;0;
45871;PMS5003;32333;55.844;-3.210;2023-05-10T06:21:57;1;1;
45871;PMS5003;32333;55.844;-3.210;2023-05-10T06:24:24;0;0;
45871;PMS5003;32333;55.844;-3.210;2023-05-10T06:26:52;0;0;
45871;PMS5003;32333;55.844;-3.210;2023-05-10T06:29:19;0;0;
45871;PMS5003;32333;55.844;-3.210;2023-05-10T06:31:47;0;0;
45871;PMS5003;32333;55.844;-3.210;2023-05-10T06:34:14;0;0;
45871;PMS5003;32333;55.844;-3.210;2023-05-10T06:36:42;0;0;
45871;PMS5003;32333;55.844;-3.210;2023-05-10T06:39:09;0;0;
45871;PMS5003;32333;55.844;-3.210;2023-05-10T06:41:37;0;0;
45871;PMS5003;32333;55.844;-3.210;2023-05-10T06:44:34;0;0;
45871;PMS5003;32333;55.844;-3.210;2023-05-10T06:47:01;0;0;
45871;PMS5003;32333;55.844;-3.210;2023-05-10T06:49:29;0;0;
45871;PMS5003;32333;55.844;-3.210;2023-05-10T06:51:57;0;0;
45871;PMS5003;32333;55.844;-3.210;2023-05-10T06:54:25;0;0;
45871;PMS5003;32333;55.844;-3.210;2023-05-10T06:56:52;0;0;
45871;PMS5003;32333;55.844;-3.210;2023-05-10T06:59:20;0;0;
45871;PMS5003;32333;55.844;-3.210;2023-05-10T07:01:48;0;0;
45871;PMS5003;32333;55.844;-3.210;2023-05-10T07:04:15;0;0;
45871;PMS5003;32333;55.844;-3.210;2023-05-10T07:06:58;0;0;
45871;PMS5003;32333;55.844;-3.210;2023-05-10T07:10:41;0;0;
45871;PMS5003;32333;55.844;-3.210;2023-05-10T07:14:39;0;0;
45871;PMS5003;32333;55.844;-3.210;2023-05-10T07:18:58;0;0;
45871;PMS5003;32333;55.844;-3.210;2023-05-10T07:21:31;0;0;
45871;PMS5003;32333;55.844;-3.210;2023-05-10T07:24:23;0;0;
45871;PMS5003;32333;55.844;-3.210;2023-05-10T07:26:53;0;0;
45871;PMS5003;32333;55.844;-3.210;2023-05-10T07:29:23;0;0;
45871;PMS5003;32333;55.844;-3.210;2023-05-10T07:31:54;0;0;
45871;PMS5003;32333;55.844;-3.210;2023-05-10T07:34:29;0;0;
45871;PMS5003;32333;55.844;-3.210;2023-05-10T07:39:27;0;0;
45871;PMS5003;32333;55.844;-3.210;2023-05-10T07:44:36;0;0;
45871;PMS5003;32333;55.844;-3.210;2023-05-10T07:47:09;0;0;
45871;PMS5003;32333;55.844;-3.210;2023-05-10T07:49:48;0;0;
45871;PMS5003;32333;55.844;-3.210;2023-05-10T07:52:27;0;0;
45871;PMS5003;32333;55.844;-3.210;2023-05-10T07:54:56;0;0;
45871;PMS5003;32333;55.844;-3.210;2023-05-10T07:57:26;0;0;
45871;PMS5003;32333;55.844;-3.210;2023-05-10T07:59:57;0;0;
45871;PMS5003;32333;55.844;-3.210;2023-05-10T08:02:52;0;0;
45871;PMS5003;32333;55.844;-3.210;2023-05-10T08:05:26;0;0;
45871;PMS5003;32333;55.844;-3.210;2023-05-10T08:07:54;0;0;
45871;PMS5003;32333;55.844;-3.210;2023-05-10T08:10:21;0;0;
45871;PMS5003;32333;55.844;-3.210;2023-05-10T08:14:35;0;0;
45871;PMS5003;32333;55.844;-3.210;2023-05-10T08:17:03;0;0;
45871;PMS5003;32333;55.844;-3.210;2023-05-10T08:19:30;0;0;
45871;PMS5003;32333;55.844;-3.210;2023-05-10T08:21:58;0;0;
45871;PMS5003;32333;55.844;-3.210;2023-05-10T08:24:25;0;0;
45871;PMS5003;32333;55.844;-3.210;2023-05-10T08:26:54;0;0;
45871;PMS5003;32333;55.844;-3.210;2023-05-10T08:29:22;1;1;
45871;PMS5003;32333;55.844;-3.210;2023-05-10T08:31:50;0;0;
45871;PMS5003;32333;55.844;-3.210;2023-05-10T08:34:19;0;0;
45871;PMS5003;32333;55.844;-3.210;2023-05-10T08:36:47;0;0;
45871;PMS5003;32333;55.844;-3.210;2023-05-10T08:39:15;0;0;
45871;PMS5003;32333;55.844;-3.210;2023-05-10T08:41:44;0;0;
45871;PMS5003;32333;55.844;-3.210;2023-05-10T08:44:36;0;0;
45871;PMS5003;32333;55.844;-3.210;2023-05-10T08:47:05;0;0;
45871;PMS5003;32333;55.844;-3.210;2023-05-10T08:49:34;0;0;
45871;PMS5003;32333;55.844;-3.210;2023-05-10T08:52:03;0;0;
45871;PMS5003;32333;55.844;-3.210;2023-05-10T08:54:33;0;0;
45871;PMS5003;32333;55.844;-3.210;2023-05-10T08:57:01;0;0;
45871;PMS5003;32333;55.844;-3.210;2023-05-10T08:59:30;0;0;
45871;PMS5003;32333;55.844;-3.210;2023-05-10T09:01:59;0;0;
45871;PMS5003;32333;55.844;-3.210;2023-05-10T09:04:27;0;0;
45871;PMS5003;32333;55.844;-3.210;2023-05-10T09:06:56;0;0;
45871;PMS5003;32333;55.844;-3.210;2023-05-10T09:09:24;0;0;
45871;PMS5003;32333;55.844;-3.210;2023-05-10T09:11:54;0;0;
45871;PMS5003;32333;55.844;-3.210;2023-05-10T09:14:35;0;0;
45871;PMS5003;32333;55.844;-3.210;2023-05-10T09:17:03;0;0;
45871;PMS5003;32333;55.844;-3.210;2023-05-10T09:19:32;0;0;
45871;PMS5003;32333;55.844;-3.210;2023-05-10T09:21:59;0;0;
45871;PMS5003;32333;55.844;-3.210;2023-05-10T09:24:26;0;0;
45871;PMS5003;32333;55.844;-3.210;2023-05-10T09:26:56;0;0;
45871;PMS5003;32333;55.844;-3.210;2023-05-10T09:29:24;0;0;
45871;PMS5003;32333;55.844;-3.210;2023-05-10T09:31:52;0;0;
45871;PMS5003;32333;55.844;-3.210;2023-05-10T09:34:21;0;0;
45871;PMS5003;32333;55.844;-3.210;2023-05-10T09:36:56;0;0;
45871;PMS5003;32333;55.844;-3.210;2023-05-10T09:39:32;0;0;
45871;PMS5003;32333;55.844;-3.210;2023-05-10T09:44:36;0;0;
45871;PMS5003;32333;55.844;-3.210;2023-05-10T09:47:03;0;0;
45871;PMS5003;32333;55.844;-3.210;2023-05-10T09:49:44;0;0;
45871;PMS5003;32333;55.844;-3.210;2023-05-10T09:52:15;0;0;
45871;PMS5003;32333;55.844;-3.210;2023-05-10T09:54:45;0;0;
45871;PMS5003;32333;55.844;-3.210;2023-05-10T09:57:20;0;0;
45871;PMS5003;32333;55.844;-3.210;2023-05-10T09:59:48;0;0;
45871;PMS5003;32333;55.844;-3.210;2023-05-10T10:02:16;0;0;
45871;PMS5003;32333;55.844;-3.210;2023-05-10T10:04:44;0;0;
45871;PMS5003;32333;55.844;-3.210;2023-05-10T10:07:15;0;0;
45871;PMS5003;32333;55.844;-3.210;2023-05-10T10:09:50;6;6;
45871;PMS5003;32333;55.844;-3.210;2023-05-10T10:14:34;21;21;
45871;PMS5003;32333;55.844;-3.210;2023-05-10T10:17:02;0;0;
45871;PMS5003;32333;55.844;-3.210;2023-05-10T10:19:30;0;0;
45871;PMS5003;32333;55.844;-3.210;2023-05-10T10:22:00;0;0;
45871;PMS5003;32333;55.844;-3.210;2023-05-10T10:24:27;12;12;
45871;PMS5003;32333;55.844;-3.210;2023-05-10T10:26:55;43;43;
45871;PMS5003;32333;55.844;-3.210;2023-05-10T10:29:32;19;19;
45871;PMS5003;32333;55.844;-3.210;2023-05-10T10:32:07;15;15;
45871;PMS5003;32333;55.844;-3.210;2023-05-10T10:34:45;33;33;
45871;PMS5003;32333;55.844;-3.210;2023-05-10T10:37:14;28;28;
45871;PMS5003;32333;55.844;-3.210;2023-05-10T10:39:41;7;7;
45871;PMS5003;32333;55.844;-3.210;2023-05-10T10:44:36;0;0;
45871;PMS5003;32333;55.844;-3.210;2023-05-10T10:47:05;0;0;
45871;PMS5003;32333;55.844;-3.210;2023-05-10T10:49:42;0;0;
45871;PMS5003;32333;55.844;-3.210;2023-05-10T10:52:14;1;1;
45871;PMS5003;32333;55.844;-3.210;2023-05-10T10:54:49;22;22;
45871;PMS5003;32333;55.844;-3.210;2023-05-10T10:57:18;0;0;
45871;PMS5003;32333;55.844;-3.210;2023-05-10T11:00:22;0;0;
45871;PMS5003;32333;55.844;-3.210;2023-05-10T11:02:58;4;4;
45871;PMS5003;32333;55.844;-3.210;2023-05-10T11:05:37;0;0;
45871;PMS5003;32333;55.844;-3.210;2023-05-10T11:08:12;0;0;
45871;PMS5003;32333;55.844;-3.210;2023-05-10T11:10:54;0;0;
45871;PMS5003;32333;55.844;-3.210;2023-05-10T11:14:35;0;0;
45871;PMS5003;32333;55.844;-3.210;2023-05-10T11:17:02;0;0;
45871;PMS5003;32333;55.844;-3.210;2023-05-10T11:20:21;0;0;
45871;PMS5003;32333;55.844;-3.210;2023-05-10T11:22:49;0;0;
45871;PMS5003;32333;55.844;-3.210;2023-05-10T11:25:18;0;0;
45871;PMS5003;32333;55.844;-3.210;2023-05-10T11:27:47;0;0;
45871;PMS5003;32333;55.844;-3.210;2023-05-10T11:30:15;6;6;
45871;PMS5003;32333;55.844;-3.210;2023-05-10T11:32:43;0;0;
45871;PMS5003;32333;55.844;-3.210;2023-05-10T11:35:11;0;0;
45871;PMS5003;32333;55.844;-3.210;2023-05-10T11:37:41;0;0;
45871;PMS5003;32333;55.844;-3.210;2023-05-10T11:40:08;0;0;
45871;PMS5003;32333;55.844;-3.210;2023-05-10T11:44:35;0;0;
45871;PMS5003;32333;55.844;-3.210;2023-05-10T11:47:03;0;0;
45871;PMS5003;32333;55.844;-3.210;2023-05-10T11:49:33;0;0;
45871;PMS5003;32333;55.844;-3.210;2023-05-10T11:52:04;0;0;
45871;PMS5003;32333;55.844;-3.210;2023-05-10T11:54:33;0;0;
45871;PMS5003;32333;55.844;-3.210;2023-05-10T11:57:01;0;0;
45871;PMS5003;32333;55.844;-3.210;2023-05-10T11:59:29;0;0;
45871;PMS5003;32333;55.844;-3.210;2023-05-10T12:01:56;0;0;
45871;PMS5003;32333;55.844;-3.210;2023-05-10T12:04:23;0;0;
45871;PMS5003;32333;55.844;-3.210;2023-05-10T12:06:52;0;0;
45871;PMS5003;32333;55.844;-3.210;2023-05-10T12:09:20;6;1;
45871;PMS5003;32333;55.844;-3.210;2023-05-10T12:11:47;0;0;
45871;PMS5003;32333;55.844;-3.210;2023-05-10T12:44:35;0;0;
45871;PMS5003;32333;55.844;-3.210;2023-05-10T12:47:04;0;0;
45871;PMS5003;32333;55.844;-3.210;2023-05-10T12:49:32;0;0;
45871;PMS5003;32333;55.844;-3.210;2023-05-10T12:51:59;0;0;
45871;PMS5003;32333;55.844;-3.210;2023-05-10T12:54:30;0;0;
45871;PMS5003;32333;55.844;-3.210;2023-05-10T12:56:57;0;0;
45871;PMS5003;32333;55.844;-3.210;2023-05-10T12:59:25;0;0;
45871;PMS5003;32333;55.844;-3.210;2023-05-10T13:01:54;0;0;
45871;PMS5003;32333;55.844;-3.210;2023-05-10T13:04:27;0;0;
45871;PMS5003;32333;55.844;-3.210;2023-05-10T13:06:55;0;0;
45871;PMS5003;32333;55.844;-3.210;2023-05-10T13:09:26;0;0;
45871;PMS5003;32333;55.844;-3.210;2023-05-10T13:11:58;0;0;
45871;PMS5003;32333;55.844;-3.210;2023-05-10T13:14:35;0;0;
45871;PMS5003;32333;55.844;-3.210;2023-05-10T13:17:30;0;0;
45871;PMS5003;32333;55.844;-3.210;2023-05-10T13:19:58;0;0;
45871;PMS5003;32333;55.844;-3.210;2023-05-10T13:22:26;0;0;
45871;PMS5003;32333;55.844;-3.210;2023-05-10T13:24:56;0;0;
45871;PMS5003;32333;55.844;-3.210;2023-05-10T13:27:25;0;0;
45871;PMS5003;32333;55.844;-3.210;2023-05-10T13:29:54;0;0;
45871;PMS5003;32333;55.844;-3.210;2023-05-10T13:32:21;0;0;
45871;PMS5003;32333;55.844;-3.210;2023-05-10T13:34:50;0;0;
45871;PMS5003;32333;55.844;-3.210;2023-05-10T13:37:18;0;0;
45871;PMS5003;32333;55.844;-3.210;2023-05-10T13:39:46;0;0;
45871;PMS5003;32333;55.844;-3.210;2023-05-10T13:44:34;0;0;
45871;PMS5003;32333;55.844;-3.210;2023-05-10T13:47:02;0;0;
45871;PMS5003;32333;55.844;-3.210;2023-05-10T13:49:30;0;0;
45871;PMS5003;32333;55.844;-3.210;2023-05-10T13:51:59;0;0;
45871;PMS5003;32333;55.844;-3.210;2023-05-10T13:54:27;0;0;
45871;PMS5003;32333;55.844;-3.210;2023-05-10T13:56:57;0;0;
45871;PMS5003;32333;55.844;-3.210;2023-05-10T13:59:25;0;0;
45871;PMS5003;32333;55.844;-3.210;2023-05-10T14:01:53;0;0;
45871;PMS5003;32333;55.844;-3.210;2023-05-10T14:05:59;0;0;
45871;PMS5003;32333;55.844;-3.210;2023-05-10T14:08:26;0;0;
45871;PMS5003;32333;55.844;-3.210;2023-05-10T14:10:55;0;0;
45871;PMS5003;32333;55.844;-3.210;2023-05-10T14:14:35;0;0;
45871;PMS5003;32333;55.844;-3.210;2023-05-10T14:17:03;0;0;
45871;PMS5003;32333;55.844;-3.210;2023-05-10T14:19:31;0;0;
45871;PMS5003;32333;55.844;-3.210;2023-05-10T14:21:59;0;0;
45871;PMS5003;32333;55.844;-3.210;2023-05-10T14:24:27;0;0;
45871;PMS5003;32333;55.844;-3.210;2023-05-10T14:26:57;0;0;
45871;PMS5003;32333;55.844;-3.210;2023-05-10T14:29:27;0;0;
45871;PMS5003;32333;55.844;-3.210;2023-05-10T14:31:57;0;0;
45871;PMS5003;32333;55.844;-3.210;2023-05-10T14:34:26;0;0;
45871;PMS5003;32333;55.844;-3.210;2023-05-10T14:36:57;0;0;
45871;PMS5003;32333;55.844;-3.210;2023-05-10T14:39:26;0;0;
45871;PMS5003;32333;55.844;-3.210;2023-05-10T14:41:55;0;0;
45871;PMS5003;32333;55.844;-3.210;2023-05-10T14:44:34;0;0;
45871;PMS5003;32333;55.844;-3.210;2023-05-10T14:47:02;0;0;
45871;PMS5003;32333;55.844;-3.210;2023-05-10T14:49:30;0;0;
45871;PMS5003;32333;55.844;-3.210;2023-05-10T14:51:59;0;0;
45871;PMS5003;32333;55.844;-3.210;2023-05-10T14:54:26;0;0;
45871;PMS5003;32333;55.844;-3.210;2023-05-10T14:56:53;0;0;
45871;PMS5003;32333;55.844;-3.210;2023-05-10T14:59:21;0;0;
45871;PMS5003;32333;55.844;-3.210;2023-05-10T15:01:48;0;0;
45871;PMS5003;32333;55.844;-3.210;2023-05-10T15:04:16;0;0;
45871;PMS5003;32333;55.844;-3.210;2023-05-10T15:06:44;0;0;
45871;PMS5003;32333;55.844;-3.210;2023-05-10T15:09:11;0;0;
45871;PMS5003;32333;55.844;-3.210;2023-05-10T15:11:49;0;0;
45871;PMS5003;32333;55.844;-3.210;2023-05-10T15:14:34;0;0;
45871;PMS5003;32333;55.844;-3.210;2023-05-10T15:17:02;0;0;
45871;PMS5003;32333;55.844;-3.210;2023-05-10T15:19:29;0;0;
45871;PMS5003;32333;55.844;-3.210;2023-05-10T15:21:58;0;0;
45871;PMS5003;32333;55.844;-3.210;2023-05-10T15:24:25;0;0;
45871;PMS5003;32333;55.844;-3.210;2023-05-10T15:26:54;0;0;
45871;PMS5003;32333;55.844;-3.210;2023-05-10T15:29:23;0;0;
45871;PMS5003;32333;55.844;-3.210;2023-05-10T15:31:53;0;0;
45871;PMS5003;32333;55.844;-3.210;2023-05-10T15:34:21;0;0;
45871;PMS5003;32333;55.844;-3.210;2023-05-10T15:36:48;0;0;
45871;PMS5003;32333;55.844;-3.210;2023-05-10T15:39:15;0;0;
45871;PMS5003;32333;55.844;-3.210;2023-05-10T15:41:43;0;0;
45871;PMS5003;32333;55.844;-3.210;2023-05-10T15:44:34;0;0;
45871;PMS5003;32333;55.844;-3.210;2023-05-10T15:47:02;0;0;
45871;PMS5003;32333;55.844;-3.210;2023-05-10T15:49:29;0;0;
45871;PMS5003;32333;55.844;-3.210;2023-05-10T15:51:58;0;0;
45871;PMS5003;32333;55.844;-3.210;2023-05-10T15:54:25;0;0;
45871;PMS5003;32333;55.844;-3.210;2023-05-10T15:56:53;0;0;
45871;PMS5003;32333;55.844;-3.210;2023-05-10T15:59:21;0;0;
45871;PMS5003;32333;55.844;-3.210;2023-05-10T16:01:49;0;0;
45871;PMS5003;32333;55.844;-3.210;2023-05-10T16:04:18;0;0;
45871;PMS5003;32333;55.844;-3.210;2023-05-10T16:06:46;0;0;
45871;PMS5003;32333;55.844;-3.210;2023-05-10T16:09:14;0;0;
45871;PMS5003;32333;55.844;-3.210;2023-05-10T16:11:41;0;0;
45871;PMS5003;32333;55.844;-3.210;2023-05-10T16:14:35;0;0;
45871;PMS5003;32333;55.844;-3.210;2023-05-10T16:17:02;0;0;
45871;PMS5003;32333;55.844;-3.210;2023-05-10T16:19:30;0;0;
45871;PMS5003;32333;55.844;-3.210;2023-05-10T16:21:58;0;0;
45871;PMS5003;32333;55.844;-3.210;2023-05-10T16:24:30;0;0;
45871;PMS5003;32333;55.844;-3.210;2023-05-10T16:26:59;0;0;
45871;PMS5003;32333;55.844;-3.210;2023-05-10T16:29:27;0;0;
45871;PMS5003;32333;55.844;-3.210;2023-05-10T16:31:58;0;0;
45871;PMS5003;32333;55.844;-3.210;2023-05-10T16:34:27;0;0;
45871;PMS5003;32333;55.844;-3.210;2023-05-10T16:36:57;0;0;
45871;PMS5003;32333;55.844;-3.210;2023-05-10T16:39:25;4;0;
45871;PMS5003;32333;55.844;-3.210;2023-05-10T16:41:53;0;0;
45871;PMS5003;32333;55.844;-3.210;2023-05-10T16:44:35;0;0;
45871;PMS5003;32333;55.844;-3.210;2023-05-10T16:47:03;0;0;
45871;PMS5003;32333;55.844;-3.210;2023-05-10T16:49:31;0;0;
45871;PMS5003;32333;55.844;-3.210;2023-05-10T16:51:58;0;0;
45871;PMS5003;32333;55.844;-3.210;2023-05-10T16:54:27;0;0;
45871;PMS5003;32333;55.844;-3.210;2023-05-10T16:56:55;0;0;
45871;PMS5003;32333;55.844;-3.210;2023-05-10T16:59:23;0;0;
45871;PMS5003;32333;55.844;-3.210;2023-05-10T17:01:50;0;0;
45871;PMS5003;32333;55.844;-3.210;2023-05-10T17:04:17;0;0;
45871;PMS5003;32333;55.844;-3.210;2023-05-10T17:06:46;0;0;
45871;PMS5003;32333;55.844;-3.210;2023-05-10T17:09:13;0;0;
45871;PMS5003;32333;55.844;-3.210;2023-05-10T17:11:40;0;0;
45871;PMS5003;32333;55.844;-3.210;2023-05-10T17:21:29;0;0;
45871;PMS5003;32333;55.844;-3.210;2023-05-10T17:23:56;0;0;
45871;PMS5003;32333;55.844;-3.210;2023-05-10T17:26:23;0;0;
45871;PMS5003;32333;55.844;-3.210;2023-05-10T17:28:52;0;0;
45871;PMS5003;32333;55.844;-3.210;2023-05-10T17:31:19;0;0;
45871;PMS5003;32333;55.844;-3.210;2023-05-10T17:33:47;0;0;
45871;PMS5003;32333;55.844;-3.210;2023-05-10T17:36:14;0;0;
45871;PMS5003;32333;55.844;-3.210;2023-05-10T17:38:41;0;0;
45871;PMS5003;32333;55.844;-3.210;2023-05-10T17:41:09;0;0;
45871;PMS5003;32333;55.844;-3.210;2023-05-10T17:44:35;0;0;
45871;PMS5003;32333;55.844;-3.210;2023-05-10T17:47:02;0;0;
45871;PMS5003;32333;55.844;-3.210;2023-05-10T17:49:29;0;0;
45871;PMS5003;32333;55.844;-3.210;2023-05-10T17:51:59;0;0;
45871;PMS5003;32333;55.844;-3.210;2023-05-10T17:54:26;0;0;
45871;PMS5003;32333;55.844;-3.210;2023-05-10T17:56:55;0;0;